Terminal Aerodrome Forecast
Issued by NWS Wakefield, VA

Home | Current Version | Previous Version | Text Only | Print | Product List | Glossary On
Versions: 1 2 3 4 5 6 7 8 9 10 11 12 13 14 15 16 17 18 19 20 21 22
000
FTUS41 KAKQ 110500
TAFECG
TAF
KECG 110533Z 1106/1206 30004KT P6SM BKN050
     FM110900 VRB03KT 5SM BR OVC015
      TEMPO 1109/1113 3SM BR
     FM111500 08006KT P6SM BKN040=

USA.gov is the U.S. government's official web portal to all federal, state and local government web resources and services.